Time;durP1;ratioP1;P1;durP2;ratioP2;P2;SDS_P1;SDS_P2;PMS_P1;PMS_P2;Temp;Humidity;BMP_temperature;BMP_pressure;BME280_temperature;BME280_humidity;BME280_pressure;Samples;Min_cycle;Max_cycle;Signal;HPM_P1;HPM_P2
2023/01/18 00:01:28;;;;;;;108.20;42.50;;;;;;;1.02;77.37;97927.06;131203;1248;107518;-71
2023/01/18 00:04:33;;;;;;;118.30;46.80;;;;;;;1.07;77.06;97926.45;131479;1253;108689;-72
2023/01/18 00:07:39;;;;;;;123.10;49.40;;;;;;;1.11;77.31;97918.29;131361;1261;107502;-72
2023/01/18 00:10:45;;;;;;;118.30;49.60;;;;;;;1.15;77.22;97910.02;131249;1254;107497;-72
2023/01/18 00:13:52;;;;;;;116.70;48.80;;;;;;;1.17;77.26;97914.73;131234;1252;107538;-72
2023/01/18 00:16:57;;;;;;;122.60;49.70;;;;;;;1.19;77.31;97914.02;131246;1252;107413;-72
2023/01/18 00:20:04;;;;;;;120.20;49.30;;;;;;;1.21;77.21;97912.00;131316;1254;106753;-73
2023/01/18 00:23:10;;;;;;;122.80;52.50;;;;;;;1.21;77.24;97908.26;131230;1258;107417;-71
2023/01/18 00:26:15;;;;;;;141.30;55.50;;;;;;;1.22;77.37;97897.88;131297;1253;107503;-72
2023/01/18 00:29:21;;;;;;;135.30;55.40;;;;;;;1.23;77.28;97892.70;131275;1254;106419;-72
2023/01/18 00:32:27;;;;;;;138.70;59.50;;;;;;;1.21;77.32;97888.35;131287;1248;107643;-72
2023/01/18 00:35:32;;;;;;;151.10;58.90;;;;;;;1.17;77.32;97876.23;131310;1261;107475;-72
2023/01/18 00:38:38;;;;;;;146.90;56.10;;;;;;;1.15;77.42;97875.70;131210;1254;106089;-72
2023/01/18 00:43:37;;;;;;;129.30;52.20;;;;;;;1.16;77.34;97867.35;131298;1254;107511;-72
2023/01/18 00:45:10;;;;;;;129.90;50.20;;;;;;;1.20;77.37;97862.67;131434;1253;107422;-71
2023/01/18 00:48:16;;;;;;;116.90;46.20;;;;;;;1.26;77.41;97864.16;131429;1253;106794;-71
2023/01/18 00:51:24;;;;;;;122.60;51.80;;;;;;;1.33;77.46;97859.23;131424;1254;105986;-72
2023/01/18 00:54:29;;;;;;;122.50;51.50;;;;;;;1.40;77.52;97861.14;131408;1248;107512;-72
2023/01/18 00:57:35;;;;;;;118.60;50.60;;;;;;;1.44;77.16;97860.91;131428;1254;107443;-72
2023/01/18 01:00:41;;;;;;;115.20;50.10;;;;;;;1.44;77.23;97863.92;131461;1253;107388;-72
2023/01/18 01:07:10;;;;;;;141.40;58.80;;;;;;;1.41;77.58;97855.66;131342;1253;107355;-71
2023/01/18 01:10:17;;;;;;;135.30;58.30;;;;;;;1.42;77.41;97852.71;131244;1248;107477;-72
2023/01/18 01:26:58;;;;;;;134.10;55.20;;;;;;;1.50;77.76;97845.14;131262;1253;107233;-72
2023/01/18 01:30:04;;;;;;;139.50;56.30;;;;;;;1.49;77.74;97836.90;131293;1261;107544;-72
2023/01/18 01:33:09;;;;;;;128.40;51.70;;;;;;;1.51;77.91;97836.61;131204;1261;107459;-73
2023/01/18 01:36:17;;;;;;;111.60;44.80;;;;;;;1.54;77.81;97837.10;131272;1251;109113;-72
2023/01/18 01:39:22;;;;;;;132.80;51.90;;;;;;;1.59;77.78;97828.77;131229;1262;107243;-72
2023/01/18 01:42:28;;;;;;;117.80;48.20;;;;;;;1.63;78.05;97829.23;131251;1254;107511;-73
2023/01/18 01:45:34;;;;;;;108.20;44.30;;;;;;;1.69;78.01;97828.47;131248;1254;107548;-72
2023/01/18 01:48:39;;;;;;;96.80;43.60;;;;;;;1.74;78.04;97827.44;131210;1267;107682;-72
2023/01/18 01:51:55;;;;;;;95.10;42.30;;;;;;;1.76;78.05;97831.75;131374;1253;108678;-70
2023/01/18 01:55:06;;;;;;;86.00;41.70;;;;;;;1.78;78.01;97831.42;131396;1252;107209;-71
2023/01/18 01:58:15;;;;;;;90.30;39.70;;;;;;;1.79;78.11;97829.77;131243;1254;107420;-71
2023/01/18 02:01:21;;;;;;;82.10;40.10;;;;;;;1.79;78.21;97833.11;131344;1254;107337;-72
2023/01/18 02:04:27;;;;;;;68.80;34.60;;;;;;;1.78;78.30;97829.66;131415;1253;108126;-71
2023/01/18 02:07:34;;;;;;;91.80;40.20;;;;;;;1.76;78.23;97829.52;131384;1254;105560;-72
2023/01/18 02:10:39;;;;;;;59.10;27.10;;;;;;;1.75;78.27;97832.92;131369;1261;107340;-72
2023/01/18 02:13:45;;;;;;;43.00;21.70;;;;;;;1.79;78.57;97826.43;131299;1263;107333;-73
2023/01/18 02:17:03;;;;;;;49.60;24.00;;;;;;;1.86;78.71;97825.48;131229;1254;108745;-71
2023/01/18 02:20:46;;;;;;;44.70;22.30;;;;;;;1.95;78.62;97824.58;131437;1257;107411;-70
2023/01/18 02:24:31;;;;;;;37.40;20.10;;;;;;;2.04;78.72;97820.04;131429;1253;107575;-70
2023/01/18 02:27:42;;;;;;;35.00;18.70;;;;;;;2.10;78.85;97815.16;131269;1254;107485;-71
2023/01/18 02:30:53;;;;;;;36.60;20.50;;;;;;;2.14;79.02;97810.34;131289;1254;107530;-71
2023/01/18 02:34:08;;;;;;;35.40;19.60;;;;;;;2.18;78.92;97810.84;131242;1253;107508;-71
2023/01/18 02:37:26;;;;;;;34.10;18.60;;;;;;;2.20;79.15;97811.52;131247;1257;107501;-72
2023/01/18 02:40:39;;;;;;;36.10;20.20;;;;;;;2.21;79.30;97809.77;131320;1248;107498;-76
2023/01/18 02:47:12;;;;;;;26.40;15.50;;;;;;;2.28;79.38;97801.11;131286;1261;108379;-73
2023/01/18 02:50:25;;;;;;;32.30;18.60;;;;;;;2.35;79.46;97802.83;131282;1253;107452;-69
2023/01/18 02:53:33;;;;;;;33.10;19.40;;;;;;;2.43;79.47;97805.05;131319;1254;107436;-72
2023/01/18 02:56:45;;;;;;;32.50;18.20;;;;;;;2.47;79.52;97807.30;131317;1257;107527;-72
2023/01/18 02:59:54;;;;;;;33.40;18.80;;;;;;;2.50;79.64;97803.27;131298;1263;107594;-73
2023/01/18 03:03:00;;;;;;;35.50;18.40;;;;;;;2.52;79.56;97801.97;131264;1254;107641;-72
2023/01/18 03:06:08;;;;;;;33.90;19.40;;;;;;;2.53;79.54;97799.64;131190;1253;107485;-73
2023/01/18 03:09:17;;;;;;;30.30;18.70;;;;;;;2.51;79.64;97795.62;131113;1254;107607;-72
2023/01/18 03:12:44;;;;;;;30.90;17.90;;;;;;;2.49;79.72;97791.65;131068;1254;107448;-71
2023/01/18 03:15:56;;;;;;;30.20;16.80;;;;;;;2.49;79.86;97780.20;131197;1263;107441;-72
2023/01/18 03:19:05;;;;;;;28.70;16.20;;;;;;;2.51;79.83;97772.06;131084;1251;107447;-72
2023/01/18 03:22:11;;;;;;;28.90;16.50;;;;;;;2.56;80.04;97770.13;131337;1251;107369;-72
2023/01/18 03:25:22;;;;;;;27.10;17.10;;;;;;;2.64;79.97;97761.95;131191;1254;107348;-72
2023/01/18 03:35:27;;;;;;;28.50;15.90;;;;;;;2.71;79.96;97746.61;131400;1251;107333;-72
2023/01/18 03:38:34;;;;;;;27.50;16.20;;;;;;;2.71;80.03;97743.66;131412;1254;107408;-73
2023/01/18 03:41:43;;;;;;;29.40;16.60;;;;;;;2.71;80.04;97737.82;131411;1263;107183;-71
2023/01/18 03:44:55;;;;;;;27.20;16.20;;;;;;;2.71;80.19;97729.80;131298;1254;106411;-72
2023/01/18 03:48:00;;;;;;;;;;;;;;;2.69;80.24;97728.56;131034;1263;106437;-72
2023/01/18 03:51:15;;;;;;;25.40;14.50;;;;;;;2.70;80.46;97718.83;131151;1254;107448;-71
2023/01/18 03:54:28;;;;;;;26.10;14.60;;;;;;;2.73;80.44;97710.08;131341;1263;107248;-71
2023/01/18 03:57:39;;;;;;;23.30;12.70;;;;;;;2.79;80.43;97709.98;131334;1261;107496;-70
2023/01/18 04:00:45;;;;;;;24.80;13.90;;;;;;;2.86;80.48;97711.80;131453;1261;108190;-74
2023/01/18 04:03:52;;;;;;;26.10;14.80;;;;;;;2.91;80.28;97707.35;131426;1254;108730;-70
2023/01/18 04:06:58;;;;;;;28.20;15.30;;;;;;;2.95;80.36;97704.64;131275;1254;107377;-73
2023/01/18 04:10:03;;;;;;;24.00;14.40;;;;;;;2.99;80.31;97707.80;131243;1248;107378;-72
2023/01/18 04:13:09;;;;;;;26.60;15.00;;;;;;;3.00;80.38;97706.67;131167;1253;120087;-72
2023/01/18 04:16:15;;;;;;;24.90;15.20;;;;;;;2.99;80.24;97709.41;131213;1253;107541;-75
2023/01/18 04:19:21;;;;;;;24.00;15.00;;;;;;;2.99;80.40;97705.19;131390;1247;107517;-73
2023/01/18 04:22:26;;;;;;;27.40;16.10;;;;;;;2.99;80.51;97707.24;131373;1254;107272;-73
2023/01/18 04:25:32;;;;;;;23.70;14.90;;;;;;;2.98;80.52;97720.87;131313;1253;108664;-73
2023/01/18 04:28:37;;;;;;;25.90;15.20;;;;;;;2.95;80.70;97727.86;131264;1256;106546;-73
2023/01/18 04:31:43;;;;;;;27.80;14.50;;;;;;;2.96;80.76;97731.93;131227;1247;107260;-73
2023/01/18 04:34:49;;;;;;;25.70;14.20;;;;;;;2.99;80.67;97738.52;131382;1248;107520;-73
2023/01/18 04:37:54;;;;;;;29.60;14.80;;;;;;;3.02;80.75;97747.08;131180;1260;107496;-73
2023/01/18 04:41:05;;;;;;;23.80;13.80;;;;;;;3.08;80.69;97742.30;131217;1253;107542;-73
2023/01/18 04:44:11;;;;;;;25.00;14.30;;;;;;;3.11;80.74;97744.20;131386;1254;107251;-70
2023/01/18 04:47:17;;;;;;;24.50;15.00;;;;;;;3.13;80.87;97741.65;131401;1248;108020;-70
2023/01/18 04:50:23;;;;;;;26.40;15.10;;;;;;;3.15;80.98;97743.77;131445;1255;107551;-69
2023/01/18 04:53:28;;;;;;;23.70;14.40;;;;;;;3.17;80.92;97739.77;131397;1248;107534;-73
2023/01/18 04:56:34;;;;;;;24.40;13.90;;;;;;;3.14;81.10;97737.14;131393;1254;107438;-71
2023/01/18 04:59:40;;;;;;;23.20;12.50;;;;;;;3.12;80.91;97728.65;131393;1261;106561;-70
2023/01/18 05:02:47;;;;;;;24.00;12.60;;;;;;;3.09;81.18;97715.74;131400;1254;107414;-74
2023/01/18 05:05:53;;;;;;;19.60;12.30;;;;;;;3.11;81.31;97706.13;131415;1254;107693;-71
2023/01/18 05:08:59;;;;;;;25.00;14.10;;;;;;;3.14;81.24;97694.33;131351;1248;107375;-71
2023/01/18 05:12:04;;;;;;;23.40;13.60;;;;;;;3.18;81.37;97694.65;131479;1248;107539;-71
2023/01/18 05:15:11;;;;;;;21.10;12.50;;;;;;;3.19;81.40;97700.17;131551;1250;107547;-73
2023/01/18 05:18:17;;;;;;;23.10;13.30;;;;;;;3.19;81.30;97694.77;131505;1254;106543;-74
2023/01/18 05:21:22;;;;;;;21.80;12.80;;;;;;;3.18;81.37;97684.50;131374;1254;107561;-72
2023/01/18 05:24:28;;;;;;;21.40;12.60;;;;;;;3.13;81.44;97685.11;131544;1253;106758;-74
2023/01/18 05:27:34;;;;;;;23.20;13.20;;;;;;;3.09;81.53;97674.33;131430;1248;107439;-72
2023/01/18 05:30:42;;;;;;;23.20;12.90;;;;;;;3.07;81.73;97666.72;131509;1248;107506;-72
2023/01/18 05:33:48;;;;;;;21.90;12.60;;;;;;;3.06;82.08;97668.05;131386;1248;107506;-75
2023/01/18 05:36:54;;;;;;;24.60;14.20;;;;;;;3.05;82.12;97659.63;131432;1254;107509;-71
2023/01/18 05:39:59;;;;;;;27.10;15.10;;;;;;;3.08;82.17;97632.70;131342;1252;107225;-72
2023/01/18 05:43:07;;;;;;;26.90;14.70;;;;;;;3.07;82.38;97607.30;131344;1254;108091;-72
2023/01/18 05:46:12;;;;;;;25.50;14.40;;;;;;;3.01;82.21;97605.84;131458;1248;107524;-72
2023/01/18 05:49:18;;;;;;;26.20;15.20;;;;;;;2.96;82.52;97613.27;131393;1253;106549;-72
2023/01/18 05:52:23;;;;;;;27.10;14.90;;;;;;;2.90;82.53;97608.61;131474;1251;107527;-71
2023/01/18 05:55:29;;;;;;;26.90;15.60;;;;;;;2.86;82.65;97590.81;131513;1255;107583;-71
2023/01/18 05:58:36;;;;;;;24.90;13.40;;;;;;;2.83;82.57;97583.42;131696;1248;107536;-72
2023/01/18 06:01:42;;;;;;;27.00;15.80;;;;;;;2.84;82.94;97581.08;131455;1254;107468;-73
2023/01/18 06:04:47;;;;;;;25.80;15.70;;;;;;;2.85;82.69;97582.85;132484;1250;107499;-72
2023/01/18 06:07:53;;;;;;;28.20;16.10;;;;;;;2.85;82.60;97589.55;131418;1248;108618;-73
2023/01/18 06:11:00;;;;;;;28.30;15.90;;;;;;;2.83;82.47;97616.23;131543;1254;107566;-72
2023/01/18 06:14:05;;;;;;;28.10;15.80;;;;;;;2.81;82.68;97626.16;131427;1251;107520;-73
2023/01/18 06:17:11;;;;;;;32.50;15.90;;;;;;;2.79;82.79;97615.00;131151;1254;107496;-73
2023/01/18 06:20:17;;;;;;;30.40;16.50;;;;;;;2.76;82.97;97615.47;131263;1254;106517;-73
2023/01/18 06:23:23;;;;;;;24.90;14.50;;;;;;;2.75;82.95;97618.17;131374;1248;107424;-73
2023/01/18 06:26:30;;;;;;;27.60;15.70;;;;;;;2.77;82.92;97630.45;131418;1254;107318;-73
2023/01/18 06:29:35;;;;;;;28.50;15.70;;;;;;;2.81;82.90;97635.48;131397;1248;107357;-72
2023/01/18 06:32:41;;;;;;;27.40;16.30;;;;;;;2.84;83.16;97630.55;131268;1254;107473;-71
2023/01/18 06:35:47;;;;;;;26.90;15.30;;;;;;;2.85;82.99;97629.05;131544;1248;107315;-72
2023/01/18 06:38:52;;;;;;;27.90;15.50;;;;;;;2.84;83.15;97626.70;131488;1253;107506;-73
2023/01/18 06:41:58;;;;;;;31.50;16.70;;;;;;;2.82;83.03;97624.02;131258;1255;107356;-73
2023/01/18 06:45:04;;;;;;;26.80;15.20;;;;;;;2.77;83.27;97616.58;131384;1253;107536;-73
2023/01/18 06:48:09;;;;;;;25.60;14.00;;;;;;;2.75;83.74;97616.08;131392;1254;107523;-73
2023/01/18 06:51:15;;;;;;;26.70;15.30;;;;;;;2.75;83.43;97605.40;131373;1248;107535;-73
2023/01/18 06:54:20;;;;;;;29.00;15.90;;;;;;;2.77;83.69;97594.52;131325;1248;106511;-72
2023/01/18 06:57:26;;;;;;;26.40;14.60;;;;;;;2.75;83.59;97591.02;131237;1253;106457;-74
2023/01/18 07:00:33;;;;;;;29.40;16.90;;;;;;;2.75;83.50;97604.67;131366;1252;108385;-72
2023/01/18 07:03:38;;;;;;;28.00;15.50;;;;;;;2.74;83.42;97627.98;131408;1248;107435;-72
2023/01/18 07:06:44;;;;;;;30.00;17.20;;;;;;;2.75;83.54;97630.81;131397;1254;107611;-71
2023/01/18 07:09:49;;;;;;;29.40;16.30;;;;;;;2.77;83.72;97631.73;131259;1254;107499;-72
2023/01/18 07:12:55;;;;;;;26.90;14.70;;;;;;;2.76;83.73;97636.00;131221;1254;107580;-72
2023/01/18 07:16:01;;;;;;;30.90;15.40;;;;;;;2.81;83.77;97641.46;131424;1248;107363;-71
2023/01/18 07:19:07;;;;;;;24.30;13.90;;;;;;;2.87;83.76;97638.13;131428;1257;107341;-72
2023/01/18 07:22:14;;;;;;;27.60;15.80;;;;;;;2.88;83.66;97634.92;131372;1248;108556;-72
2023/01/18 07:25:19;;;;;;;31.10;16.00;;;;;;;2.84;83.99;97633.59;131285;1253;107845;-73
2023/01/18 07:28:25;;;;;;;28.90;15.30;;;;;;;2.81;84.17;97630.61;131286;1260;107668;-72
2023/01/18 07:31:30;;;;;;;28.30;14.80;;;;;;;2.74;84.31;97627.30;131432;1253;107924;-70
2023/01/18 07:34:36;;;;;;;25.90;13.80;;;;;;;2.68;84.61;97615.41;131384;1261;107544;-71
2023/01/18 07:37:42;;;;;;;25.90;14.20;;;;;;;2.66;84.60;97615.16;131427;1248;107623;-72
2023/01/18 07:40:48;;;;;;;27.20;15.40;;;;;;;2.70;84.61;97613.80;131406;1248;108620;-72
2023/01/18 07:43:54;;;;;;;28.40;15.90;;;;;;;2.71;84.27;97613.34;131313;1248;107589;-70
2023/01/18 07:47:00;;;;;;;27.20;14.50;;;;;;;2.77;84.53;97606.58;131347;1247;108576;-72
2023/01/18 07:50:06;;;;;;;23.40;14.30;;;;;;;2.79;84.37;97607.41;131528;1253;107342;-71
2023/01/18 07:53:12;;;;;;;29.90;15.80;;;;;;;2.79;84.73;97603.61;131316;1252;106532;-71
2023/01/18 07:56:18;;;;;;;30.20;15.60;;;;;;;2.68;85.08;97607.69;131348;1254;107391;-71
2023/01/18 07:59:24;;;;;;;26.80;13.80;;;;;;;2.66;84.81;97613.17;131298;1247;106688;-71
2023/01/18 08:02:29;;;;;;;27.40;13.50;;;;;;;2.68;85.35;97614.80;131391;1255;107591;-71
2023/01/18 08:05:35;;;;;;;25.40;13.70;;;;;;;2.66;85.33;97611.24;131343;1253;107621;-71
2023/01/18 08:08:41;;;;;;;24.20;13.60;;;;;;;2.75;85.26;97610.34;131373;1263;107310;-70
2023/01/18 08:11:47;;;;;;;26.80;14.70;;;;;;;2.80;84.91;97597.15;131333;1253;107522;-71
2023/01/18 08:14:53;;;;;;;29.40;15.10;;;;;;;2.83;85.19;97589.94;131271;1248;107509;-74
2023/01/18 08:18:00;;;;;;;34.40;17.70;;;;;;;2.85;85.12;97586.02;131261;1253;107552;-73
2023/01/18 08:21:08;;;;;;;28.40;14.10;;;;;;;2.87;85.02;97584.95;131240;1253;107493;-73
2023/01/18 08:24:13;;;;;;;24.80;13.50;;;;;;;2.90;85.25;97596.77;131419;1253;107397;-73
2023/01/18 08:27:19;;;;;;;22.50;11.30;;;;;;;2.92;85.20;97603.21;131374;1250;109281;-72
2023/01/18 08:30:26;;;;;;;25.00;13.40;;;;;;;2.95;85.08;97600.70;131286;1248;107495;-73
2023/01/18 08:33:35;;;;;;;24.50;13.60;;;;;;;2.99;85.18;97602.43;131232;1254;107534;-72
2023/01/18 08:36:41;;;;;;;25.00;13.30;;;;;;;2.97;85.26;97601.75;131335;1254;107632;-74
2023/01/18 08:39:46;;;;;;;24.30;12.60;;;;;;;2.96;85.10;97592.16;131326;1253;107556;-71
2023/01/18 08:42:55;;;;;;;23.90;11.80;;;;;;;2.96;85.42;97577.97;131419;1248;107547;-71
2023/01/18 08:46:00;;;;;;;22.10;11.20;;;;;;;2.97;85.33;97569.68;131370;1251;107453;-72
2023/01/18 08:49:06;;;;;;;21.30;10.80;;;;;;;2.97;85.21;97573.79;131259;1253;107990;-72
2023/01/18 08:52:14;;;;;;;21.90;10.10;;;;;;;2.97;85.30;97568.52;131294;1254;107648;-72
2023/01/18 08:55:21;;;;;;;33.30;13.20;;;;;;;3.02;85.61;97559.62;131344;1253;107517;-70
2023/01/18 08:58:27;;;;;;;33.40;12.60;;;;;;;3.04;85.55;97559.22;131400;1247;107409;-71
2023/01/18 09:01:32;;;;;;;22.80;10.30;;;;;;;3.03;85.39;97560.37;131284;1248;108690;-70
2023/01/18 09:04:38;;;;;;;22.40;10.30;;;;;;;3.06;85.39;97569.70;131489;1248;108155;-72
2023/01/18 09:07:44;;;;;;;18.90;9.10;;;;;;;3.03;85.41;97560.38;131478;1253;107450;-71
2023/01/18 09:10:50;;;;;;;19.30;9.50;;;;;;;3.02;85.60;97550.77;131463;1253;107211;-72
2023/01/18 09:13:57;;;;;;;13.90;7.60;;;;;;;3.05;85.55;97546.79;131427;1253;107526;-72
2023/01/18 09:17:03;;;;;;;20.20;8.60;;;;;;;3.11;85.68;97536.13;131316;1253;107440;-73
2023/01/18 09:20:11;;;;;;;14.10;8.10;;;;;;;3.16;85.60;97518.15;131256;1253;107624;-73
2023/01/18 09:23:17;;;;;;;18.40;9.40;;;;;;;3.20;85.45;97514.38;131523;1248;107371;-73
2023/01/18 09:26:22;;;;;;;18.10;9.70;;;;;;;3.18;85.52;97510.34;131431;1253;107388;-71
2023/01/18 09:29:29;;;;;;;22.10;11.10;;;;;;;3.14;85.56;97513.37;131301;1252;108247;-71
2023/01/18 09:32:35;;;;;;;19.10;10.50;;;;;;;3.10;85.81;97520.55;131323;1253;107895;-73
2023/01/18 09:35:41;;;;;;;20.20;9.70;;;;;;;3.06;85.75;97527.30;131388;1252;107687;-73
2023/01/18 09:38:46;;;;;;;16.30;8.30;;;;;;;3.05;85.76;97533.98;131400;1254;107531;-71
2023/01/18 09:41:54;;;;;;;18.70;10.00;;;;;;;3.07;85.85;97551.66;131313;1248;107329;-71
2023/01/18 09:45:01;;;;;;;21.20;11.00;;;;;;;3.09;85.85;97558.42;131277;1253;107507;-73
2023/01/18 09:48:15;;;;;;;22.20;10.90;;;;;;;3.10;85.82;97547.77;131314;1251;107514;-73
2023/01/18 09:51:25;;;;;;;36.30;15.20;;;;;;;3.14;85.82;97535.88;131233;1253;107553;-73
2023/01/18 09:54:41;;;;;;;28.10;12.70;;;;;;;3.11;85.85;97522.69;131242;1248;107928;-74
2023/01/18 09:58:10;;;;;;;23.80;11.90;;;;;;;3.05;86.12;97527.30;131253;1253;107210;-73
2023/01/18 10:01:18;;;;;;;21.70;12.10;;;;;;;3.03;86.09;97523.17;131275;1253;107482;-72
2023/01/18 10:04:31;;;;;;;19.00;10.50;;;;;;;3.07;86.17;97511.77;131273;1248;107421;-73
2023/01/18 10:07:47;;;;;;;19.70;11.30;;;;;;;3.10;86.39;97517.27;131256;1248;107320;-71
2023/01/18 10:10:57;;;;;;;17.10;9.60;;;;;;;3.15;86.36;97528.42;131296;1247;107301;-73
2023/01/18 10:14:15;;;;;;;17.70;9.10;;;;;;;3.21;86.24;97526.59;131311;1247;108007;-74
2023/01/18 10:17:23;;;;;;;15.60;8.90;;;;;;;3.21;85.96;97515.48;131219;1247;107580;-73
2023/01/18 10:20:38;;;;;;;16.70;9.30;;;;;;;3.20;86.10;97515.72;131270;1267;107566;-73
2023/01/18 10:23:52;;;;;;;18.10;10.60;;;;;;;3.14;86.33;97507.95;131257;1253;106597;-73
2023/01/18 10:27:13;;;;;;;18.40;10.40;;;;;;;3.11;86.32;97501.81;131312;1253;105693;-73
2023/01/18 10:30:38;;;;;;;15.10;8.60;;;;;;;3.15;86.29;97502.21;131300;1253;107498;-73
2023/01/18 10:33:47;;;;;;;16.00;10.40;;;;;;;3.21;86.50;97510.35;131406;1248;108468;-72
2023/01/18 10:36:57;;;;;;;19.80;12.50;;;;;;;3.26;86.43;97513.28;131392;1253;107501;-72
2023/01/18 10:40:05;;;;;;;17.00;10.30;;;;;;;3.27;86.28;97504.08;131229;1254;108619;-71
2023/01/18 10:43:16;;;;;;;20.70;11.20;;;;;;;3.25;86.31;97508.35;131348;1253;107547;-72
2023/01/18 10:46:22;;;;;;;24.90;11.40;;;;;;;3.24;86.37;97516.03;131420;1248;107385;-71
2023/01/18 10:49:39;;;;;;;30.40;12.30;;;;;;;3.24;86.53;97522.69;131321;1252;107500;-72
2023/01/18 10:52:44;;;;;;;21.20;10.10;;;;;;;3.24;86.35;97518.53;131445;1253;107402;-71
2023/01/18 10:55:58;;;;;;;18.60;9.50;;;;;;;3.28;86.42;97516.63;131441;1253;107442;-74
2023/01/18 10:59:04;;;;;;;20.00;10.40;;;;;;;3.34;86.55;97521.77;131392;1248;108485;-72
2023/01/18 11:02:22;;;;;;;16.70;9.80;;;;;;;3.34;86.35;97510.95;131472;1252;107862;-71
2023/01/18 11:05:33;;;;;;;15.50;8.60;;;;;;;3.34;86.44;97509.98;131321;1253;107568;-72
2023/01/18 11:08:38;;;;;;;16.10;9.40;;;;;;;3.33;86.38;97503.89;131304;1248;107365;-72
2023/01/18 11:15:30;;;;;;;21.30;12.50;;;;;;;3.33;86.56;97500.07;131404;1248;107520;-73
2023/01/18 11:18:36;;;;;;;26.50;16.40;;;;;;;3.32;86.64;97494.21;131296;1253;107998;-72
2023/01/18 11:21:49;;;;;;;19.30;11.30;;;;;;;3.34;86.63;97485.77;131358;1253;107521;-75
2023/01/18 11:24:55;;;;;;;20.40;11.30;;;;;;;3.35;86.37;97477.52;131354;1248;107720;-72
2023/01/18 11:28:06;;;;;;;16.50;9.60;;;;;;;3.34;86.58;97480.86;131262;1247;108495;-73
2023/01/18 11:31:14;;;;;;;18.80;10.40;;;;;;;3.36;86.56;97484.21;131329;1271;107511;-73
2023/01/18 11:34:26;;;;;;;13.60;8.70;;;;;;;3.40;86.53;97495.40;131224;1263;109822;-74
2023/01/18 11:37:35;;;;;;;13.80;8.00;;;;;;;3.38;86.44;97503.89;131223;1248;107314;-73
2023/01/18 11:40:40;;;;;;;20.80;12.30;;;;;;;3.37;86.50;97512.48;131223;1247;107303;-74
2023/01/18 11:44:03;;;;;;;17.60;12.20;;;;;;;3.35;86.68;97507.95;131268;1253;107469;-72
2023/01/18 11:47:20;;;;;;;18.20;11.40;;;;;;;3.35;86.76;97515.66;131420;1253;107521;-73
2023/01/18 11:50:30;;;;;;;15.70;9.40;;;;;;;3.37;86.78;97511.57;131370;1248;107504;-74
2023/01/18 11:53:46;;;;;;;14.10;9.10;;;;;;;3.38;86.95;97506.00;131426;1254;107539;-73
2023/01/18 11:56:54;;;;;;;20.60;13.50;;;;;;;3.33;86.85;97505.48;131248;1247;107421;-73
2023/01/18 12:00:00;;;;;;;16.50;9.50;;;;;;;3.31;87.06;97502.86;131493;1253;107420;-73
2023/01/18 12:03:36;;;;;;;14.50;8.90;;;;;;;3.31;87.03;97503.46;131288;1253;107587;-73
2023/01/18 12:06:53;;;;;;;14.70;8.60;;;;;;;3.33;87.13;97509.88;131295;1258;107325;-72
2023/01/18 12:10:01;;;;;;;18.60;11.10;;;;;;;3.31;86.99;97512.58;131434;1253;107653;-73
2023/01/18 12:13:29;;;;;;;18.70;10.50;;;;;;;3.29;87.23;97513.54;131366;1253;107428;-73
2023/01/18 12:16:52;;;;;;;21.40;12.40;;;;;;;3.29;87.26;97518.39;131362;1248;106491;-73
2023/01/18 12:20:18;;;;;;;23.70;14.00;;;;;;;3.30;87.02;97520.20;131211;1248;107552;-73
2023/01/18 12:23:46;;;;;;;23.40;12.50;;;;;;;3.28;87.12;97517.97;131340;1253;107387;-73
2023/01/18 12:26:56;;;;;;;21.30;12.10;;;;;;;3.22;87.39;97523.33;131358;1248;108683;-73
2023/01/18 12:30:30;;;;;;;1527.00;571.30;;;;;;;3.19;87.33;97538.65;131429;1248;107508;-72
2023/01/18 12:33:47;;;;;;;145.40;46.10;;;;;;;3.32;87.51;97548.65;131239;1253;107462;-73
2023/01/18 12:37:13;;;;;;;47.90;18.40;;;;;;;3.38;87.08;97546.58;131396;1250;107451;-73
2023/01/18 12:40:35;;;;;;;27.30;11.80;;;;;;;3.36;86.98;97544.23;131497;1253;107513;-71
2023/01/18 12:43:43;;;;;;;;;;;;;;;3.27;86.87;97545.39;131446;1248;108549;-71
2023/01/18 12:47:01;;;;;;;97.90;30.60;;;;;;;3.19;87.07;97555.55;131455;1248;107524;-70
2023/01/18 12:50:17;;;;;;;211.00;64.50;;;;;;;3.11;87.07;97562.92;131465;1248;106548;-71
2023/01/18 12:53:34;;;;;;;27.50;11.30;;;;;;;3.04;87.24;97570.05;131448;1250;107509;-72
2023/01/18 12:56:43;;;;;;;23.60;12.00;;;;;;;3.01;87.56;97572.69;131464;1253;107235;-72
2023/01/18 12:59:55;;;;;;;34.90;14.00;;;;;;;2.97;87.37;97579.13;131498;1250;107285;-72
2023/01/18 13:03:04;;;;;;;19.70;10.60;;;;;;;3.01;87.41;97584.98;131481;1263;107260;-72
2023/01/18 13:06:11;;;;;;;22.40;10.60;;;;;;;2.99;87.21;97589.61;131474;1248;107423;-72
2023/01/18 13:09:21;;;;;;;17.30;8.70;;;;;;;2.93;87.22;97590.07;131534;1248;107493;-72
2023/01/18 13:12:28;;;;;;;29.40;13.30;;;;;;;2.83;87.40;97594.02;131524;1251;107565;-72
2023/01/18 13:15:45;;;;;;;144.10;37.10;;;;;;;2.78;87.53;97596.54;131539;1251;107511;-73
2023/01/18 13:18:58;;;;;;;34.80;14.50;;;;;;;2.78;87.39;97596.48;131349;1250;106802;-72
2023/01/18 13:22:10;;;;;;;161.70;49.90;;;;;;;2.85;87.22;97605.02;131342;1248;107469;-73
2023/01/18 13:25:31;;;;;;;;;;;;;;;2.91;87.07;97608.84;131365;1247;107416;-72
2023/01/18 13:28:37;;;;;;;83.80;34.60;;;;;;;2.89;86.55;97608.83;131327;1248;108797;-72
2023/01/18 13:31:43;;;;;;;19.00;11.60;;;;;;;2.72;86.54;97609.75;131269;1253;107400;-72
2023/01/18 13:34:58;;;;;;;16.10;11.00;;;;;;;2.53;86.62;97611.99;131324;1247;107626;-72
2023/01/18 13:38:13;;;;;;;13.60;8.40;;;;;;;2.40;87.00;97614.80;131494;1250;107543;-72
2023/01/18 13:41:24;;;;;;;12.60;8.30;;;;;;;2.32;87.26;97619.19;131447;1251;107612;-72
2023/01/18 13:44:36;;;;;;;44.10;18.40;;;;;;;2.32;87.24;97626.89;131387;1253;107341;-72
2023/01/18 13:48:00;;;;;;;59.00;24.80;;;;;;;2.39;87.13;97634.41;131433;1253;107519;-71
2023/01/18 13:51:06;;;;;;;23.60;12.30;;;;;;;2.46;87.10;97642.96;131424;1247;107370;-72
2023/01/18 13:54:15;;;;;;;61.50;27.90;;;;;;;2.58;87.01;97646.90;131387;1253;106987;-72
2023/01/18 13:57:20;;;;;;;137.30;49.30;;;;;;;2.67;86.84;97657.18;131245;1247;107445;-73
2023/01/18 14:00:28;;;;;;;45.60;23.70;;;;;;;2.69;86.66;97663.23;131353;1247;107362;-73
2023/01/18 14:03:37;;;;;;;29.80;18.60;;;;;;;2.68;86.41;97664.60;131318;1257;107521;-73
2023/01/18 14:06:46;;;;;;;29.40;18.30;;;;;;;2.64;86.47;97670.49;131253;1252;107437;-73
2023/01/18 14:09:52;;;;;;;41.00;26.50;;;;;;;2.64;86.53;97676.12;131215;1253;107437;-73
2023/01/18 14:12:59;;;;;;;26.70;16.70;;;;;;;2.57;86.60;97678.06;131221;1253;107543;-72
2023/01/18 14:16:05;;;;;;;18.20;11.90;;;;;;;2.58;86.63;97690.11;131383;1247;107419;-73
2023/01/18 14:19:16;;;;;;;25.50;16.60;;;;;;;2.60;86.82;97701.08;131244;1247;107361;-73
2023/01/18 14:22:39;;;;;;;23.00;16.00;;;;;;;2.68;86.84;97707.37;131583;1251;107391;-70
2023/01/18 14:25:56;;;;;;;80.00;40.50;;;;;;;2.76;86.46;97711.55;131460;1250;108730;-74
2023/01/18 14:29:05;;;;;;;159.90;71.20;;;;;;;2.65;86.26;97722.69;131524;1248;107366;-72
2023/01/18 14:32:17;;;;;;;305.10;113.00;;;;;;;2.59;86.44;97733.38;131502;1253;108519;-71
2023/01/18 14:35:24;;;;;;;61.00;25.20;;;;;;;2.53;86.38;97733.92;131542;1248;107535;-72
2023/01/18 14:38:30;;;;;;;716.80;234.90;;;;;;;2.43;86.57;97735.18;131397;1251;107347;-72
2023/01/18 14:41:37;;;;;;;538.90;150.90;;;;;;;2.46;86.67;97746.60;131298;1253;107417;-73
2023/01/18 14:44:46;;;;;;;143.20;42.10;;;;;;;2.48;86.61;97757.00;131522;1250;107673;-73
2023/01/18 14:47:51;;;;;;;867.20;280.00;;;;;;;2.48;86.71;97764.30;131495;1253;107628;-74
2023/01/18 14:50:59;;;;;;;118.50;36.90;;;;;;;2.51;86.60;97767.19;131506;1248;108415;-72